sensor_id;sensor_type;location;lat;lon;timestamp;temperature;humidity
12291;DHT22;6208;48.956;9.076;2023-02-08T00:02:03;0.10;85.00
12291;DHT22;6208;48.956;9.076;2023-02-08T00:04:47;-0.10;85.20
12291;DHT22;6208;48.956;9.076;2023-02-08T00:07:32;-0.20;85.70
12291;DHT22;6208;48.956;9.076;2023-02-08T00:10:16;-0.40;87.10
12291;DHT22;6208;48.956;9.076;2023-02-08T00:13:00;0.30;87.80
12291;DHT22;6208;48.956;9.076;2023-02-08T00:15:45;-0.40;87.70
12291;DHT22;6208;48.956;9.076;2023-02-08T00:18:29;-0.20;86.80
12291;DHT22;6208;48.956;9.076;2023-02-08T00:21:16;0.00;86.40
12291;DHT22;6208;48.956;9.076;2023-02-08T00:24:00;0.20;85.10
12291;DHT22;6208;48.956;9.076;2023-02-08T00:26:45;-0.10;85.50
12291;DHT22;6208;48.956;9.076;2023-02-08T00:29:29;0.00;85.20
12291;DHT22;6208;48.956;9.076;2023-02-08T00:32:13;-0.10;86.40
12291;DHT22;6208;48.956;9.076;2023-02-08T00:34:57;0.00;86.60
12291;DHT22;6208;48.956;9.076;2023-02-08T00:37:41;0.40;85.10
12291;DHT22;6208;48.956;9.076;2023-02-08T00:40:26;0.30;84.30
12291;DHT22;6208;48.956;9.076;2023-02-08T00:43:10;0.40;84.50
12291;DHT22;6208;48.956;9.076;2023-02-08T00:45:59;0.40;82.50
12291;DHT22;6208;48.956;9.076;2023-02-08T00:48:43;0.10;83.80
12291;DHT22;6208;48.956;9.076;2023-02-08T00:51:27;-0.10;85.20
12291;DHT22;6208;48.956;9.076;2023-02-08T00:54:16;0.00;84.70
12291;DHT22;6208;48.956;9.076;2023-02-08T00:57:00;0.10;84.90
12291;DHT22;6208;48.956;9.076;2023-02-08T00:59:45;0.40;83.40
12291;DHT22;6208;48.956;9.076;2023-02-08T01:02:28;0.90;82.90
12291;DHT22;6208;48.956;9.076;2023-02-08T01:05:13;0.50;81.60
12291;DHT22;6208;48.956;9.076;2023-02-08T01:07:57;0.50;80.60
12291;DHT22;6208;48.956;9.076;2023-02-08T01:10:41;0.60;80.30
12291;DHT22;6208;48.956;9.076;2023-02-08T01:13:25;0.50;78.90
12291;DHT22;6208;48.956;9.076;2023-02-08T01:16:16;0.50;79.20
12291;DHT22;6208;48.956;9.076;2023-02-08T01:19:02;0.60;78.60
12291;DHT22;6208;48.956;9.076;2023-02-08T01:21:46;0.70;78.30
12291;DHT22;6208;48.956;9.076;2023-02-08T01:24:32;0.30;80.00
12291;DHT22;6208;48.956;9.076;2023-02-08T01:27:19;0.10;82.00
12291;DHT22;6208;48.956;9.076;2023-02-08T01:30:04;0.10;82.00
12291;DHT22;6208;48.956;9.076;2023-02-08T01:32:49;0.00;81.80
12291;DHT22;6208;48.956;9.076;2023-02-08T01:35:33;-0.20;82.90
12291;DHT22;6208;48.956;9.076;2023-02-08T01:38:17;-0.10;83.80
12291;DHT22;6208;48.956;9.076;2023-02-08T01:41:03;0.10;83.20
12291;DHT22;6208;48.956;9.076;2023-02-08T01:46:57;0.40;82.30
12291;DHT22;6208;48.956;9.076;2023-02-08T01:49:41;0.40;81.50
12291;DHT22;6208;48.956;9.076;2023-02-08T01:52:25;2.30;83.80
12291;DHT22;6208;48.956;9.076;2023-02-08T01:55:23;0.50;82.10
12291;DHT22;6208;48.956;9.076;2023-02-08T01:58:11;0.40;82.70
12291;DHT22;6208;48.956;9.076;2023-02-08T02:00:56;0.40;83.30
12291;DHT22;6208;48.956;9.076;2023-02-08T02:03:40;0.40;84.30
12291;DHT22;6208;48.956;9.076;2023-02-08T02:06:49;0.40;85.90
12291;DHT22;6208;48.956;9.076;2023-02-08T02:12:25;0.30;87.80
12291;DHT22;6208;48.956;9.076;2023-02-08T02:15:10;0.30;88.00
12291;DHT22;6208;48.956;9.076;2023-02-08T02:17:54;0.40;88.60
12291;DHT22;6208;48.956;9.076;2023-02-08T02:36:42;0.50;90.00
12291;DHT22;6208;48.956;9.076;2023-02-08T02:39:42;0.50;90.10
12291;DHT22;6208;48.956;9.076;2023-02-08T02:43:30;0.40;90.40
12291;DHT22;6208;48.956;9.076;2023-02-08T02:52:23;0.30;90.90
12291;DHT22;6208;48.956;9.076;2023-02-08T02:55:14;0.20;90.80
12291;DHT22;6208;48.956;9.076;2023-02-08T02:58:00;0.20;91.00
12291;DHT22;6208;48.956;9.076;2023-02-08T03:00:52;0.20;90.90
12291;DHT22;6208;48.956;9.076;2023-02-08T03:03:36;0.10;91.00
12291;DHT22;6208;48.956;9.076;2023-02-08T03:15:19;-0.60;92.40
12291;DHT22;6208;48.956;9.076;2023-02-08T03:18:34;-0.70;92.30
12291;DHT22;6208;48.956;9.076;2023-02-08T03:30:37;-1.10;93.60
12291;DHT22;6208;48.956;9.076;2023-02-08T03:36:54;-1.50;94.80
12291;DHT22;6208;48.956;9.076;2023-02-08T03:39:42;-1.70;94.90
12291;DHT22;6208;48.956;9.076;2023-02-08T03:42:29;-1.60;95.30
12291;DHT22;6208;48.956;9.076;2023-02-08T03:45:25;-1.10;94.40
12291;DHT22;6208;48.956;9.076;2023-02-08T03:48:13;-0.90;94.00
12291;DHT22;6208;48.956;9.076;2023-02-08T03:51:01;-0.60;93.20
12291;DHT22;6208;48.956;9.076;2023-02-08T03:53:47;-0.50;92.70
12291;DHT22;6208;48.956;9.076;2023-02-08T03:56:45;-0.50;92.70
12291;DHT22;6208;48.956;9.076;2023-02-08T03:59:34;-0.30;92.20
12291;DHT22;6208;48.956;9.076;2023-02-08T04:02:26;-0.30;92.00
12291;DHT22;6208;48.956;9.076;2023-02-08T04:05:11;-0.30;92.00
12291;DHT22;6208;48.956;9.076;2023-02-08T04:07:56;-0.40;92.60
12291;DHT22;6208;48.956;9.076;2023-02-08T04:10:40;-0.50;92.90
12291;DHT22;6208;48.956;9.076;2023-02-08T04:13:25;-0.40;92.70
12291;DHT22;6208;48.956;9.076;2023-02-08T04:16:11;0.30;93.60
12291;DHT22;6208;48.956;9.076;2023-02-08T04:18:55;-1.00;93.60
12291;DHT22;6208;48.956;9.076;2023-02-08T04:21:39;-1.50;94.20
12291;DHT22;6208;48.956;9.076;2023-02-08T04:24:23;-1.70;94.50
12291;DHT22;6208;48.956;9.076;2023-02-08T04:27:07;-1.70;94.90
12291;DHT22;6208;48.956;9.076;2023-02-08T04:29:51;-1.90;95.00
12291;DHT22;6208;48.956;9.076;2023-02-08T04:32:35;-1.80;95.30
12291;DHT22;6208;48.956;9.076;2023-02-08T04:35:19;-2.00;95.50
12291;DHT22;6208;48.956;9.076;2023-02-08T04:38:04;-2.20;95.90
12291;DHT22;6208;48.956;9.076;2023-02-08T04:40:48;0.00;97.20
12291;DHT22;6208;48.956;9.076;2023-02-08T04:43:32;-1.90;95.80
12291;DHT22;6208;48.956;9.076;2023-02-08T04:46:16;-1.70;95.60
12291;DHT22;6208;48.956;9.076;2023-02-08T04:49:00;-1.30;94.80
12291;DHT22;6208;48.956;9.076;2023-02-08T04:51:44;-1.10;94.00
12291;DHT22;6208;48.956;9.076;2023-02-08T04:54:28;-1.00;93.30
12291;DHT22;6208;48.956;9.076;2023-02-08T04:57:13;-0.90;93.20
12291;DHT22;6208;48.956;9.076;2023-02-08T04:59:57;-0.90;93.20
12291;DHT22;6208;48.956;9.076;2023-02-08T05:02:41;-0.70;93.10
12291;DHT22;6208;48.956;9.076;2023-02-08T05:05:25;-0.70;92.80
12291;DHT22;6208;48.956;9.076;2023-02-08T05:08:10;-0.60;92.60
12291;DHT22;6208;48.956;9.076;2023-02-08T05:10:54;-0.60;92.50
12291;DHT22;6208;48.956;9.076;2023-02-08T05:13:39;-0.60;92.50
12291;DHT22;6208;48.956;9.076;2023-02-08T05:16:22;-0.60;92.50
12291;DHT22;6208;48.956;9.076;2023-02-08T05:19:08;-0.60;92.50
12291;DHT22;6208;48.956;9.076;2023-02-08T05:21:52;0.60;93.30
12291;DHT22;6208;48.956;9.076;2023-02-08T05:24:36;-0.70;92.50
12291;DHT22;6208;48.956;9.076;2023-02-08T05:27:20;-1.10;92.90
12291;DHT22;6208;48.956;9.076;2023-02-08T05:30:05;-1.60;93.90
12291;DHT22;6208;48.956;9.076;2023-02-08T05:32:49;-1.80;94.60
12291;DHT22;6208;48.956;9.076;2023-02-08T05:35:33;-1.90;94.70
12291;DHT22;6208;48.956;9.076;2023-02-08T05:38:20;-1.80;94.80
12291;DHT22;6208;48.956;9.076;2023-02-08T05:41:04;-1.50;94.20
12291;DHT22;6208;48.956;9.076;2023-02-08T05:43:49;-1.00;93.60
12291;DHT22;6208;48.956;9.076;2023-02-08T05:46:32;-1.10;93.20
12291;DHT22;6208;48.956;9.076;2023-02-08T05:49:16;-0.80;92.90
12291;DHT22;6208;48.956;9.076;2023-02-08T05:52:00;-0.80;92.60
12291;DHT22;6208;48.956;9.076;2023-02-08T05:54:45;-0.70;92.40
12291;DHT22;6208;48.956;9.076;2023-02-08T05:57:29;-1.10;92.60
12291;DHT22;6208;48.956;9.076;2023-02-08T06:00:14;-1.80;94.00
12291;DHT22;6208;48.956;9.076;2023-02-08T06:02:58;-1.90;95.00
12291;DHT22;6208;48.956;9.076;2023-02-08T06:05:43;-1.60;95.10
12291;DHT22;6208;48.956;9.076;2023-02-08T06:08:27;-1.50;95.00
12291;DHT22;6208;48.956;9.076;2023-02-08T06:11:11;-1.40;94.70
12291;DHT22;6208;48.956;9.076;2023-02-08T06:13:56;-1.30;94.60
12291;DHT22;6208;48.956;9.076;2023-02-08T06:16:40;-1.20;94.30
12291;DHT22;6208;48.956;9.076;2023-02-08T06:19:24;-1.20;94.00
12291;DHT22;6208;48.956;9.076;2023-02-08T06:22:08;-1.30;94.10
12291;DHT22;6208;48.956;9.076;2023-02-08T06:24:52;-1.50;94.00
12291;DHT22;6208;48.956;9.076;2023-02-08T06:27:36;-1.60;93.90
12291;DHT22;6208;48.956;9.076;2023-02-08T06:30:20;-1.90;94.50
12291;DHT22;6208;48.956;9.076;2023-02-08T06:33:04;-1.80;94.70
12291;DHT22;6208;48.956;9.076;2023-02-08T06:35:51;-1.70;94.40
12291;DHT22;6208;48.956;9.076;2023-02-08T06:38:35;-2.00;94.50
12291;DHT22;6208;48.956;9.076;2023-02-08T06:41:20;-1.90;94.90
12291;DHT22;6208;48.956;9.076;2023-02-08T06:44:04;-1.60;94.60
12291;DHT22;6208;48.956;9.076;2023-02-08T06:46:48;-1.40;94.40
12291;DHT22;6208;48.956;9.076;2023-02-08T06:49:32;-1.20;94.00
12291;DHT22;6208;48.956;9.076;2023-02-08T06:52:16;-1.10;94.00
12291;DHT22;6208;48.956;9.076;2023-02-08T06:55:01;0.90;94.70
12291;DHT22;6208;48.956;9.076;2023-02-08T06:57:45;-1.10;93.70
12291;DHT22;6208;48.956;9.076;2023-02-08T07:00:29;-1.10;93.90
12291;DHT22;6208;48.956;9.076;2023-02-08T07:03:14;-1.00;93.50
12291;DHT22;6208;48.956;9.076;2023-02-08T07:06:00;-0.90;93.20
12291;DHT22;6208;48.956;9.076;2023-02-08T07:08:45;-0.90;93.40
12291;DHT22;6208;48.956;9.076;2023-02-08T07:11:29;-1.90;94.10
12291;DHT22;6208;48.956;9.076;2023-02-08T07:14:14;-2.30;96.10
12291;DHT22;6208;48.956;9.076;2023-02-08T07:16:59;-2.20;96.10
12291;DHT22;6208;48.956;9.076;2023-02-08T07:19:44;-1.80;95.80
12291;DHT22;6208;48.956;9.076;2023-02-08T07:22:28;-0.60;95.90
12291;DHT22;6208;48.956;9.076;2023-02-08T07:25:12;-1.60;95.10
12291;DHT22;6208;48.956;9.076;2023-02-08T07:27:56;-1.50;95.20
12291;DHT22;6208;48.956;9.076;2023-02-08T07:30:40;-1.40;95.20
12291;DHT22;6208;48.956;9.076;2023-02-08T07:33:25;-1.20;94.70
12291;DHT22;6208;48.956;9.076;2023-02-08T07:36:09;-1.00;94.40
12291;DHT22;6208;48.956;9.076;2023-02-08T07:38:54;-0.90;93.40
12291;DHT22;6208;48.956;9.076;2023-02-08T07:41:38;-1.00;93.30
12291;DHT22;6208;48.956;9.076;2023-02-08T07:44:22;-0.90;93.20
12291;DHT22;6208;48.956;9.076;2023-02-08T07:47:06;-1.40;94.70
12291;DHT22;6208;48.956;9.076;2023-02-08T07:49:51;-1.20;94.20
12291;DHT22;6208;48.956;9.076;2023-02-08T07:52:35;-1.10;94.10
12291;DHT22;6208;48.956;9.076;2023-02-08T07:55:19;1.10;94.40
12291;DHT22;6208;48.956;9.076;2023-02-08T07:58:04;1.20;94.10
12291;DHT22;6208;48.956;9.076;2023-02-08T08:00:48;-0.30;92.70
12291;DHT22;6208;48.956;9.076;2023-02-08T08:03:32;-0.20;91.80
12291;DHT22;6208;48.956;9.076;2023-02-08T08:06:18;-0.20;91.90
12291;DHT22;6208;48.956;9.076;2023-02-08T08:09:02;1.10;92.70
12291;DHT22;6208;48.956;9.076;2023-02-08T08:11:47;-0.20;91.90
12291;DHT22;6208;48.956;9.076;2023-02-08T08:14:31;-0.10;91.50
12291;DHT22;6208;48.956;9.076;2023-02-08T08:17:15;0.00;91.10
12291;DHT22;6208;48.956;9.076;2023-02-08T08:20:00;0.00;91.50
12291;DHT22;6208;48.956;9.076;2023-02-08T08:22:44;-0.20;92.20
12291;DHT22;6208;48.956;9.076;2023-02-08T08:25:28;-0.20;92.60
12291;DHT22;6208;48.956;9.076;2023-02-08T08:28:12;-0.10;92.00
12291;DHT22;6208;48.956;9.076;2023-02-08T08:30:57;0.10;92.00
12291;DHT22;6208;48.956;9.076;2023-02-08T08:33:41;-0.10;91.30
12291;DHT22;6208;48.956;9.076;2023-02-08T08:36:25;1.90;92.80
12291;DHT22;6208;48.956;9.076;2023-02-08T08:39:09;0.00;91.60
12291;DHT22;6208;48.956;9.076;2023-02-08T08:41:57;0.00;92.60
12291;DHT22;6208;48.956;9.076;2023-02-08T08:44:41;0.20;91.90
12291;DHT22;6208;48.956;9.076;2023-02-08T08:47:25;0.40;91.10
12291;DHT22;6208;48.956;9.076;2023-02-08T08:50:09;0.30;89.30
12291;DHT22;6208;48.956;9.076;2023-02-08T08:52:53;0.50;86.50
12291;DHT22;6208;48.956;9.076;2023-02-08T08:55:37;0.50;88.70
12291;DHT22;6208;48.956;9.076;2023-02-08T08:58:21;1.30;88.80
12291;DHT22;6208;48.956;9.076;2023-02-08T09:01:05;1.80;88.00
12291;DHT22;6208;48.956;9.076;2023-02-08T09:03:49;0.30;85.60
12291;DHT22;6208;48.956;9.076;2023-02-08T09:06:33;0.10;84.40
12291;DHT22;6208;48.956;9.076;2023-02-08T09:09:19;0.10;85.70
12291;DHT22;6208;48.956;9.076;2023-02-08T09:12:04;0.30;86.90
12291;DHT22;6208;48.956;9.076;2023-02-08T09:14:48;0.30;82.10
12291;DHT22;6208;48.956;9.076;2023-02-08T09:17:32;0.20;80.60
12291;DHT22;6208;48.956;9.076;2023-02-08T09:20:16;0.10;79.10
12291;DHT22;6208;48.956;9.076;2023-02-08T09:23:00;0.00;82.30
12291;DHT22;6208;48.956;9.076;2023-02-08T09:25:45;0.20;79.90
12291;DHT22;6208;48.956;9.076;2023-02-08T09:28:29;0.10;81.30
12291;DHT22;6208;48.956;9.076;2023-02-08T09:31:25;0.30;80.00
12291;DHT22;6208;48.956;9.076;2023-02-08T09:34:09;0.50;80.80
12291;DHT22;6208;48.956;9.076;2023-02-08T09:36:53;0.70;76.70
12291;DHT22;6208;48.956;9.076;2023-02-08T09:39:37;0.80;77.50
12291;DHT22;6208;48.956;9.076;2023-02-08T09:42:40;0.90;77.50
12291;DHT22;6208;48.956;9.076;2023-02-08T09:45:35;0.80;77.60
12291;DHT22;6208;48.956;9.076;2023-02-08T09:48:23;1.10;78.00
12291;DHT22;6208;48.956;9.076;2023-02-08T09:51:39;1.20;79.50
12291;DHT22;6208;48.956;9.076;2023-02-08T09:54:26;1.30;80.10
12291;DHT22;6208;48.956;9.076;2023-02-08T09:57:15;1.30;71.50
12291;DHT22;6208;48.956;9.076;2023-02-08T10:00:06;2.10;73.20
12291;DHT22;6208;48.956;9.076;2023-02-08T10:02:57;1.60;74.50
12291;DHT22;6208;48.956;9.076;2023-02-08T10:05:42;1.70;73.70
12291;DHT22;6208;48.956;9.076;2023-02-08T10:08:28;3.50;75.30
12291;DHT22;6208;48.956;9.076;2023-02-08T10:11:25;3.80;73.20
12291;DHT22;6208;48.956;9.076;2023-02-08T10:17:35;1.70;70.40
12291;DHT22;6208;48.956;9.076;2023-02-08T10:29:41;2.10;67.70
12291;DHT22;6208;48.956;9.076;2023-02-08T10:35:26;2.10;71.50
12291;DHT22;6208;48.956;9.076;2023-02-08T10:38:29;2.20;64.90
12291;DHT22;6208;48.956;9.076;2023-02-08T10:41:19;2.20;64.80
12291;DHT22;6208;48.956;9.076;2023-02-08T10:44:17;2.40;67.10
12291;DHT22;6208;48.956;9.076;2023-02-08T10:50:08;2.50;72.10
12291;DHT22;6208;48.956;9.076;2023-02-08T10:52:54;2.60;67.20
12291;DHT22;6208;48.956;9.076;2023-02-08T10:55:41;2.70;66.10
12291;DHT22;6208;48.956;9.076;2023-02-08T10:58:25;3.30;62.70
12291;DHT22;6208;48.956;9.076;2023-02-08T11:01:09;2.70;64.90
12291;DHT22;6208;48.956;9.076;2023-02-08T11:06:47;3.60;64.40
12291;DHT22;6208;48.956;9.076;2023-02-08T11:09:31;3.00;61.50
12291;DHT22;6208;48.956;9.076;2023-02-08T11:12:21;2.90;61.00
12291;DHT22;6208;48.956;9.076;2023-02-08T11:15:20;5.00;61.00
12291;DHT22;6208;48.956;9.076;2023-02-08T11:18:06;4.40;65.70
12291;DHT22;6208;48.956;9.076;2023-02-08T11:23:50;2.90;59.30
12291;DHT22;6208;48.956;9.076;2023-02-08T11:26:36;3.00;64.40
12291;DHT22;6208;48.956;9.076;2023-02-08T11:29:26;3.30;66.70
12291;DHT22;6208;48.956;9.076;2023-02-08T11:32:17;3.30;65.20
12291;DHT22;6208;48.956;9.076;2023-02-08T11:38:05;3.40;60.70
12291;DHT22;6208;48.956;9.076;2023-02-08T11:40:49;3.30;58.60
12291;DHT22;6208;48.956;9.076;2023-02-08T11:43:36;3.10;58.70
12291;DHT22;6208;48.956;9.076;2023-02-08T11:46:25;3.10;59.00
12291;DHT22;6208;48.956;9.076;2023-02-08T11:49:23;3.30;61.20
12291;DHT22;6208;48.956;9.076;2023-02-08T11:55:18;3.50;63.70
12291;DHT22;6208;48.956;9.076;2023-02-08T11:58:26;3.70;64.40
12291;DHT22;6208;48.956;9.076;2023-02-08T12:01:19;3.80;63.50
12291;DHT22;6208;48.956;9.076;2023-02-08T12:04:06;3.70;57.60
12291;DHT22;6208;48.956;9.076;2023-02-08T12:19:18;4.60;56.90
12291;DHT22;6208;48.956;9.076;2023-02-08T12:22:12;4.10;56.70
12291;DHT22;6208;48.956;9.076;2023-02-08T12:29:01;4.30;58.00
12291;DHT22;6208;48.956;9.076;2023-02-08T12:31:55;4.30;55.30
12291;DHT22;6208;48.956;9.076;2023-02-08T12:41:31;4.50;58.10
12291;DHT22;6208;48.956;9.076;2023-02-08T12:44:50;4.60;57.40
12291;DHT22;6208;48.956;9.076;2023-02-08T12:48:06;4.50;57.10
12291;DHT22;6208;48.956;9.076;2023-02-08T12:54:29;4.70;54.70
12291;DHT22;6208;48.956;9.076;2023-02-08T12:57:17;4.70;53.40
12291;DHT22;6208;48.956;9.076;2023-02-08T13:05:45;5.00;52.10
12291;DHT22;6208;48.956;9.076;2023-02-08T13:08:54;6.30;53.90
12291;DHT22;6208;48.956;9.076;2023-02-08T13:11:51;5.30;52.90
12291;DHT22;6208;48.956;9.076;2023-02-08T13:17:30;5.10;51.70
12291;DHT22;6208;48.956;9.076;2023-02-08T13:20:32;5.40;54.00
12291;DHT22;6208;48.956;9.076;2023-02-08T13:23:29;5.50;52.50
12291;DHT22;6208;48.956;9.076;2023-02-08T13:26:25;5.70;52.10
12291;DHT22;6208;48.956;9.076;2023-02-08T13:29:16;6.10;50.40
12291;DHT22;6208;48.956;9.076;2023-02-08T13:32:06;6.60;52.80
12291;DHT22;6208;48.956;9.076;2023-02-08T13:35:01;6.50;49.00
12291;DHT22;6208;48.956;9.076;2023-02-08T13:37:57;7.00;49.30
12291;DHT22;6208;48.956;9.076;2023-02-08T13:40:44;7.50;47.50
12291;DHT22;6208;48.956;9.076;2023-02-08T13:43:34;7.70;47.70
12291;DHT22;6208;48.956;9.076;2023-02-08T13:46:21;8.20;46.40
12291;DHT22;6208;48.956;9.076;2023-02-08T13:49:06;8.20;47.90
12291;DHT22;6208;48.956;9.076;2023-02-08T13:51:51;8.30;44.30
12291;DHT22;6208;48.956;9.076;2023-02-08T13:54:36;8.60;44.20
12291;DHT22;6208;48.956;9.076;2023-02-08T13:57:50;8.80;45.30
12291;DHT22;6208;48.956;9.076;2023-02-08T14:00:35;8.70;44.10
12291;DHT22;6208;48.956;9.076;2023-02-08T14:03:22;9.10;43.40
12291;DHT22;6208;48.956;9.076;2023-02-08T14:06:18;8.70;42.70
12291;DHT22;6208;48.956;9.076;2023-02-08T14:12:25;8.90;41.40
12291;DHT22;6208;48.956;9.076;2023-02-08T14:17:58;9.10;43.80
12291;DHT22;6208;48.956;9.076;2023-02-08T14:20:59;9.20;44.60
12291;DHT22;6208;48.956;9.076;2023-02-08T14:23:43;9.30;43.60
12291;DHT22;6208;48.956;9.076;2023-02-08T14:26:28;8.80;43.20
12291;DHT22;6208;48.956;9.076;2023-02-08T14:29:25;9.00;44.00
12291;DHT22;6208;48.956;9.076;2023-02-08T14:32:24;9.00;42.50
12291;DHT22;6208;48.956;9.076;2023-02-08T14:35:24;9.00;42.60
12291;DHT22;6208;48.956;9.076;2023-02-08T14:41:02;8.80;46.10
12291;DHT22;6208;48.956;9.076;2023-02-08T14:43:47;8.70;46.40
12291;DHT22;6208;48.956;9.076;2023-02-08T14:49:25;8.50;46.70
12291;DHT22;6208;48.956;9.076;2023-02-08T14:52:19;7.50;43.20
12291;DHT22;6208;48.956;9.076;2023-02-08T14:55:17;7.40;48.60
12291;DHT22;6208;48.956;9.076;2023-02-08T14:58:04;7.20;47.60
12291;DHT22;6208;48.956;9.076;2023-02-08T15:00:53;6.70;48.30
12291;DHT22;6208;48.956;9.076;2023-02-08T15:03:39;6.60;50.20
12291;DHT22;6208;48.956;9.076;2023-02-08T15:09:38;6.40;50.60
12291;DHT22;6208;48.956;9.076;2023-02-08T15:12:29;7.70;52.80
12291;DHT22;6208;48.956;9.076;2023-02-08T15:15:34;6.10;51.00
12291;DHT22;6208;48.956;9.076;2023-02-08T15:18:27;6.10;51.30
12291;DHT22;6208;48.956;9.076;2023-02-08T15:21:18;7.30;53.90
12291;DHT22;6208;48.956;9.076;2023-02-08T15:24:24;5.50;51.50
12291;DHT22;6208;48.956;9.076;2023-02-08T15:27:23;5.20;51.70
12291;DHT22;6208;48.956;9.076;2023-02-08T15:30:25;5.30;53.10
12291;DHT22;6208;48.956;9.076;2023-02-08T15:33:14;5.20;55.20
12291;DHT22;6208;48.956;9.076;2023-02-08T15:36:04;6.70;57.40
12291;DHT22;6208;48.956;9.076;2023-02-08T15:38:49;5.20;54.50
12291;DHT22;6208;48.956;9.076;2023-02-08T15:41:33;5.50;53.40
12291;DHT22;6208;48.956;9.076;2023-02-08T15:44:23;5.10;53.40
12291;DHT22;6208;48.956;9.076;2023-02-08T15:47:17;5.10;53.70
12291;DHT22;6208;48.956;9.076;2023-02-08T15:50:04;5.00;53.60
12291;DHT22;6208;48.956;9.076;2023-02-08T15:52:58;5.00;54.60
12291;DHT22;6208;48.956;9.076;2023-02-08T15:55:54;4.70;54.70
12291;DHT22;6208;48.956;9.076;2023-02-08T15:58:42;4.90;55.80
12291;DHT22;6208;48.956;9.076;2023-02-08T16:01:27;4.70;56.20
12291;DHT22;6208;48.956;9.076;2023-02-08T16:04:12;4.50;57.30
12291;DHT22;6208;48.956;9.076;2023-02-08T16:06:56;4.20;58.50
12291;DHT22;6208;48.956;9.076;2023-02-08T16:09:45;4.80;61.20
12291;DHT22;6208;48.956;9.076;2023-02-08T16:12:30;4.90;62.10
12291;DHT22;6208;48.956;9.076;2023-02-08T16:15:49;4.30;64.40
12291;DHT22;6208;48.956;9.076;2023-02-08T16:18:43;4.20;61.50
12291;DHT22;6208;48.956;9.076;2023-02-08T16:21:38;4.20;63.10
12291;DHT22;6208;48.956;9.076;2023-02-08T16:24:26;4.10;63.40
12291;DHT22;6208;48.956;9.076;2023-02-08T16:27:29;4.10;62.90
12291;DHT22;6208;48.956;9.076;2023-02-08T16:30:17;4.20;66.70
12291;DHT22;6208;48.956;9.076;2023-02-08T16:33:07;4.00;67.40
12291;DHT22;6208;48.956;9.076;2023-02-08T16:35:52;5.20;70.70
12291;DHT22;6208;48.956;9.076;2023-02-08T16:38:36;3.90;69.50
12291;DHT22;6208;48.956;9.076;2023-02-08T16:47:56;3.60;70.70
12291;DHT22;6208;48.956;9.076;2023-02-08T16:50:41;3.40;70.90
12291;DHT22;6208;48.956;9.076;2023-02-08T16:53:27;3.90;70.50
12291;DHT22;6208;48.956;9.076;2023-02-08T16:56:12;3.40;71.50
12291;DHT22;6208;48.956;9.076;2023-02-08T16:58:57;3.30;71.80
12291;DHT22;6208;48.956;9.076;2023-02-08T17:01:41;4.30;71.70
12291;DHT22;6208;48.956;9.076;2023-02-08T17:04:31;3.30;72.60
12291;DHT22;6208;48.956;9.076;2023-02-08T17:07:16;3.30;70.10
12291;DHT22;6208;48.956;9.076;2023-02-08T17:10:06;3.20;70.80
12291;DHT22;6208;48.956;9.076;2023-02-08T17:12:51;2.90;70.70
12291;DHT22;6208;48.956;9.076;2023-02-08T17:15:36;2.80;68.40
12291;DHT22;6208;48.956;9.076;2023-02-08T17:18:21;4.00;68.80
12291;DHT22;6208;48.956;9.076;2023-02-08T17:21:05;2.50;67.40
12291;DHT22;6208;48.956;9.076;2023-02-08T17:23:50;2.70;69.40
12291;DHT22;6208;48.956;9.076;2023-02-08T17:26:41;2.70;69.90
12291;DHT22;6208;48.956;9.076;2023-02-08T17:29:25;2.50;68.00
12291;DHT22;6208;48.956;9.076;2023-02-08T17:32:09;2.40;69.60
12291;DHT22;6208;48.956;9.076;2023-02-08T17:34:53;2.50;71.60
12291;DHT22;6208;48.956;9.076;2023-02-08T17:37:38;2.50;74.20
12291;DHT22;6208;48.956;9.076;2023-02-08T17:40:24;3.40;75.80
12291;DHT22;6208;48.956;9.076;2023-02-08T17:43:10;2.40;76.30
12291;DHT22;6208;48.956;9.076;2023-02-08T17:45:55;3.10;79.10
12291;DHT22;6208;48.956;9.076;2023-02-08T17:48:39;3.80;79.30
12291;DHT22;6208;48.956;9.076;2023-02-08T17:51:23;2.50;77.60
12291;DHT22;6208;48.956;9.076;2023-02-08T17:54:07;3.70;77.50
12291;DHT22;6208;48.956;9.076;2023-02-08T17:56:54;2.20;76.20
12291;DHT22;6208;48.956;9.076;2023-02-08T17:59:41;2.20;78.20
12291;DHT22;6208;48.956;9.076;2023-02-08T18:02:27;3.00;78.10
12291;DHT22;6208;48.956;9.076;2023-02-08T18:05:13;2.10;77.40
12291;DHT22;6208;48.956;9.076;2023-02-08T18:07:58;2.10;77.50
12291;DHT22;6208;48.956;9.076;2023-02-08T18:10:42;2.70;77.90
12291;DHT22;6208;48.956;9.076;2023-02-08T18:13:27;2.20;79.40
12291;DHT22;6208;48.956;9.076;2023-02-08T18:16:14;2.30;80.80
12291;DHT22;6208;48.956;9.076;2023-02-08T18:18:58;2.00;80.00
12291;DHT22;6208;48.956;9.076;2023-02-08T18:21:44;2.40;80.90
12291;DHT22;6208;48.956;9.076;2023-02-08T18:24:29;2.30;82.00
12291;DHT22;6208;48.956;9.076;2023-02-08T18:27:14;2.70;82.90
12291;DHT22;6208;48.956;9.076;2023-02-08T18:29:59;2.30;83.50
12291;DHT22;6208;48.956;9.076;2023-02-08T18:32:43;2.10;84.80
12291;DHT22;6208;48.956;9.076;2023-02-08T18:35:27;2.30;84.30
12291;DHT22;6208;48.956;9.076;2023-02-08T18:38:12;2.30;82.90
12291;DHT22;6208;48.956;9.076;2023-02-08T18:40:56;3.40;83.90
12291;DHT22;6208;48.956;9.076;2023-02-08T18:43:41;2.90;83.20
12291;DHT22;6208;48.956;9.076;2023-02-08T18:46:27;2.20;82.20
12291;DHT22;6208;48.956;9.076;2023-02-08T18:49:12;2.20;83.70
12291;DHT22;6208;48.956;9.076;2023-02-08T18:51:58;2.20;83.40
12291;DHT22;6208;48.956;9.076;2023-02-08T18:54:42;2.20;83.10
12291;DHT22;6208;48.956;9.076;2023-02-08T18:57:27;2.00;83.20
12291;DHT22;6208;48.956;9.076;2023-02-08T19:00:11;2.00;84.20
12291;DHT22;6208;48.956;9.076;2023-02-08T19:02:55;2.00;85.40
12291;DHT22;6208;48.956;9.076;2023-02-08T19:05:40;2.10;84.30
12291;DHT22;6208;48.956;9.076;2023-02-08T19:08:24;2.20;84.00
12291;DHT22;6208;48.956;9.076;2023-02-08T19:11:20;2.10;83.90
12291;DHT22;6208;48.956;9.076;2023-02-08T19:14:07;2.10;83.30
12291;DHT22;6208;48.956;9.076;2023-02-08T19:16:51;2.00;84.50
12291;DHT22;6208;48.956;9.076;2023-02-08T19:19:35;1.90;85.10
12291;DHT22;6208;48.956;9.076;2023-02-08T19:22:19;1.90;83.20
12291;DHT22;6208;48.956;9.076;2023-02-08T19:25:04;1.90;83.30
12291;DHT22;6208;48.956;9.076;2023-02-08T19:27:48;1.80;85.50
12291;DHT22;6208;48.956;9.076;2023-02-08T19:30:33;1.80;86.00
12291;DHT22;6208;48.956;9.076;2023-02-08T19:33:18;1.80;87.10
12291;DHT22;6208;48.956;9.076;2023-02-08T19:36:13;1.60;87.00
12291;DHT22;6208;48.956;9.076;2023-02-08T19:38:58;1.50;88.40
12291;DHT22;6208;48.956;9.076;2023-02-08T19:41:43;1.50;88.50
12291;DHT22;6208;48.956;9.076;2023-02-08T19:44:28;1.30;88.10
12291;DHT22;6208;48.956;9.076;2023-02-08T19:47:12;1.10;87.90
12291;DHT22;6208;48.956;9.076;2023-02-08T19:49:56;2.60;88.90
12291;DHT22;6208;48.956;9.076;2023-02-08T19:52:40;1.20;89.10
12291;DHT22;6208;48.956;9.076;2023-02-08T19:55:26;1.10;89.20
12291;DHT22;6208;48.956;9.076;2023-02-08T19:58:10;1.00;90.00
12291;DHT22;6208;48.956;9.076;2023-02-08T20:00:56;2.50;91.20
12291;DHT22;6208;48.956;9.076;2023-02-08T20:03:41;0.90;90.80
12291;DHT22;6208;48.956;9.076;2023-02-08T20:06:28;0.90;91.00
12291;DHT22;6208;48.956;9.076;2023-02-08T20:09:14;1.30;90.80
12291;DHT22;6208;48.956;9.076;2023-02-08T20:11:59;0.80;90.20
12291;DHT22;6208;48.956;9.076;2023-02-08T20:14:43;0.50;90.40
12291;DHT22;6208;48.956;9.076;2023-02-08T20:17:27;0.90;90.60
12291;DHT22;6208;48.956;9.076;2023-02-08T20:20:11;0.60;90.90
12291;DHT22;6208;48.956;9.076;2023-02-08T20:22:56;0.80;90.50
12291;DHT22;6208;48.956;9.076;2023-02-08T20:25:40;0.80;90.00